sensor_id;sensor_type;location;lat;lon;timestamp;P1;durP1;ratioP1;P2;durP2;ratioP2
72209;SDS011;60113;48.762;12.302;2022-09-28T00:02:18;1.60;;;0.80;;
72209;SDS011;60113;48.762;12.302;2022-09-28T00:05:04;7.90;;;1.30;;
72209;SDS011;60113;48.762;12.302;2022-09-28T00:07:50;1.00;;;0.90;;
72209;SDS011;60113;48.762;12.302;2022-09-28T00:10:36;2.92;;;1.48;;
72209;SDS011;60113;48.762;12.302;2022-09-28T00:13:22;1.60;;;1.02;;
72209;SDS011;60113;48.762;12.302;2022-09-28T00:16:14;2.30;;;1.00;;
72209;SDS011;60113;48.762;12.302;2022-09-28T00:19:01;1.48;;;0.73;;
72209;SDS011;60113;48.762;12.302;2022-09-28T00:21:49;2.63;;;0.90;;
72209;SDS011;60113;48.762;12.302;2022-09-28T00:24:35;1.10;;;0.80;;
72209;SDS011;60113;48.762;12.302;2022-09-28T00:27:20;2.40;;;0.80;;
72209;SDS011;60113;48.762;12.302;2022-09-28T00:30:06;2.00;;;1.20;;
72209;SDS011;60113;48.762;12.302;2022-09-28T00:32:53;2.53;;;0.90;;
72209;SDS011;60113;48.762;12.302;2022-09-28T00:35:39;1.25;;;0.90;;
72209;SDS011;60113;48.762;12.302;2022-09-28T00:38:26;2.08;;;1.00;;
72209;SDS011;60113;48.762;12.302;2022-09-28T00:41:13;2.95;;;1.05;;
72209;SDS011;60113;48.762;12.302;2022-09-28T00:50:16;2.30;;;1.40;;
72209;SDS011;60113;48.762;12.302;2022-09-28T00:53:14;1.88;;;1.05;;
72209;SDS011;60113;48.762;12.302;2022-09-28T00:56:07;2.47;;;1.20;;
72209;SDS011;60113;48.762;12.302;2022-09-28T00:58:56;3.88;;;1.23;;
72209;SDS011;60113;48.762;12.302;2022-09-28T01:01:44;4.05;;;0.70;;
72209;SDS011;60113;48.762;12.302;2022-09-28T01:04:30;1.77;;;1.00;;
72209;SDS011;60113;48.762;12.302;2022-09-28T01:07:16;4.43;;;1.00;;
72209;SDS011;60113;48.762;12.302;2022-09-28T01:10:03;1.98;;;0.82;;
72209;SDS011;60113;48.762;12.302;2022-09-28T01:12:50;1.70;;;0.80;;
72209;SDS011;60113;48.762;12.302;2022-09-28T01:15:38;2.60;;;0.75;;
72209;SDS011;60113;48.762;12.302;2022-09-28T01:24:47;2.50;;;1.00;;
72209;SDS011;60113;48.762;12.302;2022-09-28T01:28:03;3.28;;;1.20;;
72209;SDS011;60113;48.762;12.302;2022-09-28T01:31:12;2.80;;;1.00;;
72209;SDS011;60113;48.762;12.302;2022-09-28T01:34:00;3.42;;;0.77;;
72209;SDS011;60113;48.762;12.302;2022-09-28T01:36:58;1.92;;;1.00;;
72209;SDS011;60113;48.762;12.302;2022-09-28T01:39:49;2.17;;;1.13;;
72209;SDS011;60113;48.762;12.302;2022-09-28T01:42:37;2.25;;;1.27;;
72209;SDS011;60113;48.762;12.302;2022-09-28T01:45:28;4.22;;;1.23;;
72209;SDS011;60113;48.762;12.302;2022-09-28T01:48:26;4.07;;;1.35;;
72209;SDS011;60113;48.762;12.302;2022-09-28T01:52:36;3.50;;;1.60;;
72209;SDS011;60113;48.762;12.302;2022-09-28T01:55:02;7.38;;;2.08;;
72209;SDS011;60113;48.762;12.302;2022-09-28T01:58:09;6.72;;;1.67;;
72209;SDS011;60113;48.762;12.302;2022-09-28T02:01:01;5.22;;;2.22;;
72209;SDS011;60113;48.762;12.302;2022-09-28T02:03:56;9.23;;;1.95;;
72209;SDS011;60113;48.762;12.302;2022-09-28T02:06:57;5.95;;;1.55;;
72209;SDS011;60113;48.762;12.302;2022-09-28T02:09:54;3.03;;;1.70;;
72209;SDS011;60113;48.762;12.302;2022-09-28T02:12:55;3.70;;;2.10;;
72209;SDS011;60113;48.762;12.302;2022-09-28T02:15:50;2.88;;;1.40;;
72209;SDS011;60113;48.762;12.302;2022-09-28T02:18:41;1.77;;;1.20;;
72209;SDS011;60113;48.762;12.302;2022-09-28T02:21:31;2.55;;;1.33;;
72209;SDS011;60113;48.762;12.302;2022-09-28T02:24:43;2.10;;;1.48;;
72209;SDS011;60113;48.762;12.302;2022-09-28T02:28:11;4.13;;;1.85;;
72209;SDS011;60113;48.762;12.302;2022-09-28T02:30:52;6.65;;;2.20;;
72209;SDS011;60113;48.762;12.302;2022-09-28T02:33:39;5.82;;;2.25;;
72209;SDS011;60113;48.762;12.302;2022-09-28T02:36:28;18.20;;;2.97;;
72209;SDS011;60113;48.762;12.302;2022-09-28T02:39:15;5.88;;;3.58;;
72209;SDS011;60113;48.762;12.302;2022-09-28T02:42:20;4.28;;;3.28;;
72209;SDS011;60113;48.762;12.302;2022-09-28T03:00:21;4.50;;;2.63;;
72209;SDS011;60113;48.762;12.302;2022-09-28T03:06:03;4.35;;;2.58;;
72209;SDS011;60113;48.762;12.302;2022-09-28T03:08:54;5.57;;;3.00;;
72209;SDS011;60113;48.762;12.302;2022-09-28T03:11:46;1.88;;;1.42;;
72209;SDS011;60113;48.762;12.302;2022-09-28T03:14:37;2.47;;;1.63;;
72209;SDS011;60113;48.762;12.302;2022-09-28T03:17:23;5.03;;;2.63;;
72209;SDS011;60113;48.762;12.302;2022-09-28T03:20:09;4.43;;;2.38;;
72209;SDS011;60113;48.762;12.302;2022-09-28T03:22:55;6.00;;;2.53;;
72209;SDS011;60113;48.762;12.302;2022-09-28T03:25:41;3.97;;;2.58;;
72209;SDS011;60113;48.762;12.302;2022-09-28T03:28:27;11.73;;;2.13;;
72209;SDS011;60113;48.762;12.302;2022-09-28T03:31:13;3.33;;;2.40;;
72209;SDS011;60113;48.762;12.302;2022-09-28T03:33:59;4.70;;;2.05;;
72209;SDS011;60113;48.762;12.302;2022-09-28T03:36:45;2.40;;;2.08;;
72209;SDS011;60113;48.762;12.302;2022-09-28T03:39:31;3.05;;;2.35;;
72209;SDS011;60113;48.762;12.302;2022-09-28T03:42:16;2.75;;;2.38;;
72209;SDS011;60113;48.762;12.302;2022-09-28T03:45:02;3.05;;;2.50;;
72209;SDS011;60113;48.762;12.302;2022-09-28T03:47:48;5.45;;;2.67;;
72209;SDS011;60113;48.762;12.302;2022-09-28T03:50:34;8.00;;;2.95;;
72209;SDS011;60113;48.762;12.302;2022-09-28T03:53:20;4.88;;;2.92;;
72209;SDS011;60113;48.762;12.302;2022-09-28T03:56:11;4.43;;;2.28;;
72209;SDS011;60113;48.762;12.302;2022-09-28T03:58:58;8.90;;;3.33;;
72209;SDS011;60113;48.762;12.302;2022-09-28T04:01:48;4.35;;;2.20;;
72209;SDS011;60113;48.762;12.302;2022-09-28T04:04:37;3.25;;;2.47;;
72209;SDS011;60113;48.762;12.302;2022-09-28T04:07:23;3.70;;;2.15;;
72209;SDS011;60113;48.762;12.302;2022-09-28T04:10:08;2.45;;;1.65;;
72209;SDS011;60113;48.762;12.302;2022-09-28T04:12:55;1.95;;;1.65;;
72209;SDS011;60113;48.762;12.302;2022-09-28T04:15:42;5.18;;;2.15;;
72209;SDS011;60113;48.762;12.302;2022-09-28T04:18:28;6.47;;;2.75;;
72209;SDS011;60113;48.762;12.302;2022-09-28T04:21:14;4.25;;;3.03;;
72209;SDS011;60113;48.762;12.302;2022-09-28T04:24:02;7.07;;;3.08;;
72209;SDS011;60113;48.762;12.302;2022-09-28T04:26:48;4.82;;;3.20;;
72209;SDS011;60113;48.762;12.302;2022-09-28T04:29:34;4.32;;;3.00;;
72209;SDS011;60113;48.762;12.302;2022-09-28T04:32:19;4.20;;;1.58;;
72209;SDS011;60113;48.762;12.302;2022-09-28T04:35:07;5.15;;;2.05;;
72209;SDS011;60113;48.762;12.302;2022-09-28T04:37:53;1.50;;;1.17;;
72209;SDS011;60113;48.762;12.302;2022-09-28T04:40:39;3.97;;;1.80;;
72209;SDS011;60113;48.762;12.302;2022-09-28T04:43:25;2.55;;;1.40;;
72209;SDS011;60113;48.762;12.302;2022-09-28T04:46:11;2.30;;;1.65;;
72209;SDS011;60113;48.762;12.302;2022-09-28T04:48:57;7.30;;;2.10;;
72209;SDS011;60113;48.762;12.302;2022-09-28T04:51:42;1.83;;;1.13;;
72209;SDS011;60113;48.762;12.302;2022-09-28T04:54:28;3.78;;;1.80;;
72209;SDS011;60113;48.762;12.302;2022-09-28T04:57:14;4.55;;;2.78;;
72209;SDS011;60113;48.762;12.302;2022-09-28T05:00:00;3.70;;;1.20;;
72209;SDS011;60113;48.762;12.302;2022-09-28T05:02:46;2.55;;;1.65;;
72209;SDS011;60113;48.762;12.302;2022-09-28T05:05:32;3.05;;;1.20;;
72209;SDS011;60113;48.762;12.302;2022-09-28T05:08:18;2.05;;;0.95;;
72209;SDS011;60113;48.762;12.302;2022-09-28T05:11:04;4.25;;;1.15;;
72209;SDS011;60113;48.762;12.302;2022-09-28T05:13:52;2.90;;;1.02;;
72209;SDS011;60113;48.762;12.302;2022-09-28T05:16:37;3.25;;;1.17;;
72209;SDS011;60113;48.762;12.302;2022-09-28T05:19:23;3.20;;;1.52;;
72209;SDS011;60113;48.762;12.302;2022-09-28T05:22:09;3.40;;;1.20;;
72209;SDS011;60113;48.762;12.302;2022-09-28T05:24:59;2.50;;;0.90;;
72209;SDS011;60113;48.762;12.302;2022-09-28T05:27:45;2.03;;;1.10;;
72209;SDS011;60113;48.762;12.302;2022-09-28T05:30:31;1.48;;;0.65;;
72209;SDS011;60113;48.762;12.302;2022-09-28T05:33:17;3.35;;;1.38;;
72209;SDS011;60113;48.762;12.302;2022-09-28T05:36:03;3.45;;;1.00;;
72209;SDS011;60113;48.762;12.302;2022-09-28T05:38:52;4.72;;;1.50;;
72209;SDS011;60113;48.762;12.302;2022-09-28T05:41:38;4.32;;;1.42;;
72209;SDS011;60113;48.762;12.302;2022-09-28T05:44:25;3.28;;;1.38;;
72209;SDS011;60113;48.762;12.302;2022-09-28T05:47:12;1.05;;;0.50;;
72209;SDS011;60113;48.762;12.302;2022-09-28T05:49:58;4.32;;;0.90;;
72209;SDS011;60113;48.762;12.302;2022-09-28T05:52:44;3.50;;;0.85;;
72209;SDS011;60113;48.762;12.302;2022-09-28T05:55:30;2.58;;;0.93;;
72209;SDS011;60113;48.762;12.302;2022-09-28T05:58:16;1.92;;;0.70;;
72209;SDS011;60113;48.762;12.302;2022-09-28T06:01:02;2.47;;;1.00;;
72209;SDS011;60113;48.762;12.302;2022-09-28T06:03:48;2.13;;;1.13;;
72209;SDS011;60113;48.762;12.302;2022-09-28T06:06:34;1.15;;;0.60;;
72209;SDS011;60113;48.762;12.302;2022-09-28T06:09:20;4.15;;;0.77;;
72209;SDS011;60113;48.762;12.302;2022-09-28T06:12:08;1.80;;;0.80;;
72209;SDS011;60113;48.762;12.302;2022-09-28T06:14:54;9.13;;;1.40;;
72209;SDS011;60113;48.762;12.302;2022-09-28T06:17:41;1.92;;;1.15;;
72209;SDS011;60113;48.762;12.302;2022-09-28T06:20:28;5.32;;;1.10;;
72209;SDS011;60113;48.762;12.302;2022-09-28T06:23:17;2.63;;;1.15;;
72209;SDS011;60113;48.762;12.302;2022-09-28T06:26:03;2.88;;;1.02;;
72209;SDS011;60113;48.762;12.302;2022-09-28T06:28:48;2.30;;;1.00;;
72209;SDS011;60113;48.762;12.302;2022-09-28T06:31:34;1.58;;;0.70;;
72209;SDS011;60113;48.762;12.302;2022-09-28T06:34:20;0.70;;;0.45;;
72209;SDS011;60113;48.762;12.302;2022-09-28T06:37:07;3.75;;;1.08;;
72209;SDS011;60113;48.762;12.302;2022-09-28T06:39:53;2.53;;;0.88;;
72209;SDS011;60113;48.762;12.302;2022-09-28T06:42:39;2.40;;;0.50;;
72209;SDS011;60113;48.762;12.302;2022-09-28T06:45:25;2.60;;;0.90;;
72209;SDS011;60113;48.762;12.302;2022-09-28T06:48:12;1.45;;;0.30;;
72209;SDS011;60113;48.762;12.302;2022-09-28T06:50:58;1.48;;;0.70;;
72209;SDS011;60113;48.762;12.302;2022-09-28T06:53:45;1.42;;;0.57;;
72209;SDS011;60113;48.762;12.302;2022-09-28T06:56:30;0.95;;;0.50;;
72209;SDS011;60113;48.762;12.302;2022-09-28T06:59:16;0.80;;;0.60;;
72209;SDS011;60113;48.762;12.302;2022-09-28T07:02:02;1.42;;;0.60;;
72209;SDS011;60113;48.762;12.302;2022-09-28T07:04:51;1.52;;;0.73;;
72209;SDS011;60113;48.762;12.302;2022-09-28T07:07:37;3.85;;;0.60;;
72209;SDS011;60113;48.762;12.302;2022-09-28T07:10:26;0.70;;;0.50;;
72209;SDS011;60113;48.762;12.302;2022-09-28T07:13:14;2.20;;;1.08;;
72209;SDS011;60113;48.762;12.302;2022-09-28T07:16:01;2.75;;;0.70;;
72209;SDS011;60113;48.762;12.302;2022-09-28T07:18:51;2.70;;;1.08;;
72209;SDS011;60113;48.762;12.302;2022-09-28T07:21:36;2.40;;;0.95;;
72209;SDS011;60113;48.762;12.302;2022-09-28T07:24:22;3.13;;;0.50;;
72209;SDS011;60113;48.762;12.302;2022-09-28T07:27:08;1.52;;;0.80;;
72209;SDS011;60113;48.762;12.302;2022-09-28T07:29:54;2.92;;;1.38;;
72209;SDS011;60113;48.762;12.302;2022-09-28T07:32:39;3.75;;;0.80;;
72209;SDS011;60113;48.762;12.302;2022-09-28T07:35:26;0.63;;;0.52;;
72209;SDS011;60113;48.762;12.302;2022-09-28T07:38:12;1.10;;;0.50;;
72209;SDS011;60113;48.762;12.302;2022-09-28T07:40:58;2.45;;;1.48;;
72209;SDS011;60113;48.762;12.302;2022-09-28T07:43:56;4.90;;;1.75;;
72209;SDS011;60113;48.762;12.302;2022-09-28T07:46:43;1.48;;;0.82;;
72209;SDS011;60113;48.762;12.302;2022-09-28T07:49:29;2.90;;;0.98;;
72209;SDS011;60113;48.762;12.302;2022-09-28T07:52:14;3.90;;;0.88;;
72209;SDS011;60113;48.762;12.302;2022-09-28T07:55:01;1.38;;;0.70;;
72209;SDS011;60113;48.762;12.302;2022-09-28T07:57:52;1.55;;;0.73;;
72209;SDS011;60113;48.762;12.302;2022-09-28T08:00:39;1.13;;;0.57;;
72209;SDS011;60113;48.762;12.302;2022-09-28T08:03:25;1.33;;;0.63;;
72209;SDS011;60113;48.762;12.302;2022-09-28T08:06:12;2.10;;;0.80;;
72209;SDS011;60113;48.762;12.302;2022-09-28T08:08:59;1.05;;;0.65;;
72209;SDS011;60113;48.762;12.302;2022-09-28T08:11:46;1.33;;;0.50;;
72209;SDS011;60113;48.762;12.302;2022-09-28T08:14:31;5.07;;;0.88;;
72209;SDS011;60113;48.762;12.302;2022-09-28T08:17:18;1.15;;;0.45;;
72209;SDS011;60113;48.762;12.302;2022-09-28T08:20:04;1.38;;;0.80;;
72209;SDS011;60113;48.762;12.302;2022-09-28T08:23:09;1.40;;;1.00;;
72209;SDS011;60113;48.762;12.302;2022-09-28T08:25:55;1.40;;;0.90;;
72209;SDS011;60113;48.762;12.302;2022-09-28T08:28:42;2.90;;;1.20;;
72209;SDS011;60113;48.762;12.302;2022-09-28T08:31:29;2.30;;;1.00;;
72209;SDS011;60113;48.762;12.302;2022-09-28T08:34:15;1.23;;;0.85;;
72209;SDS011;60113;48.762;12.302;2022-09-28T08:37:01;2.22;;;1.02;;
72209;SDS011;60113;48.762;12.302;2022-09-28T08:39:48;0.95;;;0.73;;
72209;SDS011;60113;48.762;12.302;2022-09-28T08:42:34;2.60;;;1.27;;
72209;SDS011;60113;48.762;12.302;2022-09-28T08:45:27;2.30;;;0.85;;
72209;SDS011;60113;48.762;12.302;2022-09-28T08:48:17;1.95;;;0.82;;
72209;SDS011;60113;48.762;12.302;2022-09-28T09:00:51;3.75;;;2.00;;
72209;SDS011;60113;48.762;12.302;2022-09-28T09:03:37;2.25;;;1.70;;
72209;SDS011;60113;48.762;12.302;2022-09-28T09:06:29;3.63;;;1.52;;
72209;SDS011;60113;48.762;12.302;2022-09-28T09:18:45;1.88;;;1.00;;
72209;SDS011;60113;48.762;12.302;2022-09-28T09:21:47;3.13;;;1.60;;
72209;SDS011;60113;48.762;12.302;2022-09-28T09:45:52;1.95;;;0.80;;
72209;SDS011;60113;48.762;12.302;2022-09-28T09:49:13;2.13;;;0.75;;
72209;SDS011;60113;48.762;12.302;2022-09-28T09:52:18;1.50;;;1.17;;
72209;SDS011;60113;48.762;12.302;2022-09-28T09:58:04;0.60;;;0.50;;
72209;SDS011;60113;48.762;12.302;2022-09-28T10:00:57;3.25;;;1.90;;
72209;SDS011;60113;48.762;12.302;2022-09-28T10:03:50;4.95;;;2.45;;
72209;SDS011;60113;48.762;12.302;2022-09-28T10:06:36;0.90;;;0.52;;
72209;SDS011;60113;48.762;12.302;2022-09-28T10:09:26;1.23;;;0.80;;
72209;SDS011;60113;48.762;12.302;2022-09-28T10:12:20;1.98;;;0.70;;
72209;SDS011;60113;48.762;12.302;2022-09-28T10:15:08;1.50;;;0.63;;
72209;SDS011;60113;48.762;12.302;2022-09-28T10:18:03;1.15;;;0.75;;
72209;SDS011;60113;48.762;12.302;2022-09-28T10:20:55;1.58;;;0.43;;
72209;SDS011;60113;48.762;12.302;2022-09-28T10:23:40;0.88;;;0.68;;
72209;SDS011;60113;48.762;12.302;2022-09-28T10:26:34;1.80;;;0.43;;
72209;SDS011;60113;48.762;12.302;2022-09-28T10:29:24;2.42;;;0.50;;
72209;SDS011;60113;48.762;12.302;2022-09-28T10:32:18;1.58;;;0.60;;
72209;SDS011;60113;48.762;12.302;2022-09-28T10:38:05;1.45;;;0.60;;
72209;SDS011;60113;48.762;12.302;2022-09-28T10:40:59;2.25;;;1.10;;
72209;SDS011;60113;48.762;12.302;2022-09-28T10:43:54;2.03;;;0.80;;
72209;SDS011;60113;48.762;12.302;2022-09-28T10:47:11;1.23;;;0.52;;
72209;SDS011;60113;48.762;12.302;2022-09-28T10:50:01;1.13;;;0.65;;
72209;SDS011;60113;48.762;12.302;2022-09-28T10:52:47;1.50;;;0.60;;
72209;SDS011;60113;48.762;12.302;2022-09-28T10:55:33;2.95;;;0.98;;
72209;SDS011;60113;48.762;12.302;2022-09-28T10:58:23;0.98;;;0.65;;
72209;SDS011;60113;48.762;12.302;2022-09-28T11:01:12;3.55;;;1.20;;
72209;SDS011;60113;48.762;12.302;2022-09-28T11:04:02;2.58;;;0.90;;
72209;SDS011;60113;48.762;12.302;2022-09-28T11:06:52;2.10;;;0.82;;
72209;SDS011;60113;48.762;12.302;2022-09-28T11:09:45;1.63;;;0.80;;
72209;SDS011;60113;48.762;12.302;2022-09-28T11:12:37;3.78;;;1.13;;
72209;SDS011;60113;48.762;12.302;2022-09-28T11:15:29;3.60;;;1.20;;
72209;SDS011;60113;48.762;12.302;2022-09-28T11:18:27;3.38;;;1.02;;
72209;SDS011;60113;48.762;12.302;2022-09-28T11:21:17;3.03;;;1.38;;
72209;SDS011;60113;48.762;12.302;2022-09-28T11:24:19;2.38;;;1.20;;
72209;SDS011;60113;48.762;12.302;2022-09-28T11:27:09;3.75;;;1.20;;
72209;SDS011;60113;48.762;12.302;2022-09-28T11:30:05;3.17;;;1.45;;
72209;SDS011;60113;48.762;12.302;2022-09-28T11:33:12;3.65;;;1.58;;
72209;SDS011;60113;48.762;12.302;2022-09-28T11:42:04;3.55;;;2.00;;
72209;SDS011;60113;48.762;12.302;2022-09-28T11:44:59;2.97;;;1.80;;
72209;SDS011;60113;48.762;12.302;2022-09-28T11:48:12;1.85;;;1.48;;
72209;SDS011;60113;48.762;12.302;2022-09-28T11:51:20;2.10;;;1.30;;
72209;SDS011;60113;48.762;12.302;2022-09-28T11:54:13;3.15;;;1.48;;
72209;SDS011;60113;48.762;12.302;2022-09-28T11:57:02;2.60;;;1.38;;
72209;SDS011;60113;48.762;12.302;2022-09-28T11:59:56;3.35;;;1.35;;
72209;SDS011;60113;48.762;12.302;2022-09-28T12:06:15;4.20;;;2.05;;
72209;SDS011;60113;48.762;12.302;2022-09-28T12:09:05;4.20;;;2.00;;
72209;SDS011;60113;48.762;12.302;2022-09-28T12:12:09;2.88;;;1.80;;
72209;SDS011;60113;48.762;12.302;2022-09-28T12:15:18;3.22;;;2.00;;
72209;SDS011;60113;48.762;12.302;2022-09-28T12:18:13;3.92;;;1.65;;
72209;SDS011;60113;48.762;12.302;2022-09-28T12:24:23;5.03;;;1.60;;
72209;SDS011;60113;48.762;12.302;2022-09-28T12:30:48;4.50;;;1.70;;
72209;SDS011;60113;48.762;12.302;2022-09-28T12:33:36;3.00;;;1.42;;
72209;SDS011;60113;48.762;12.302;2022-09-28T12:46:05;2.20;;;1.30;;
72209;SDS011;60113;48.762;12.302;2022-09-28T12:52:20;8.15;;;4.55;;
72209;SDS011;60113;48.762;12.302;2022-09-28T12:55:26;5.72;;;4.25;;
72209;SDS011;60113;48.762;12.302;2022-09-28T13:05:40;7.38;;;1.70;;
72209;SDS011;60113;48.762;12.302;2022-09-28T13:17:27;3.63;;;1.80;;
72209;SDS011;60113;48.762;12.302;2022-09-28T13:20:41;4.03;;;1.38;;
72209;SDS011;60113;48.762;12.302;2022-09-28T13:23:33;2.38;;;1.17;;
72209;SDS011;60113;48.762;12.302;2022-09-28T13:26:21;5.60;;;1.80;;
72209;SDS011;60113;48.762;12.302;2022-09-28T13:29:13;4.13;;;1.30;;
72209;SDS011;60113;48.762;12.302;2022-09-28T13:32:02;4.38;;;1.60;;
72209;SDS011;60113;48.762;12.302;2022-09-28T13:34:48;2.83;;;1.20;;
72209;SDS011;60113;48.762;12.302;2022-09-28T13:37:34;5.13;;;1.75;;
72209;SDS011;60113;48.762;12.302;2022-09-28T13:40:24;6.00;;;1.67;;
72209;SDS011;60113;48.762;12.302;2022-09-28T13:59:50;5.35;;;1.85;;
72209;SDS011;60113;48.762;12.302;2022-09-28T14:02:55;3.10;;;1.20;;
72209;SDS011;60113;48.762;12.302;2022-09-28T14:12:14;3.67;;;1.55;;
72209;SDS011;60113;48.762;12.302;2022-09-28T14:18:31;0.88;;;0.73;;
72209;SDS011;60113;48.762;12.302;2022-09-28T14:24:33;2.35;;;1.10;;
72209;SDS011;60113;48.762;12.302;2022-09-28T14:33:27;2.90;;;0.73;;
72209;SDS011;60113;48.762;12.302;2022-09-28T14:36:22;3.95;;;1.10;;
72209;SDS011;60113;48.762;12.302;2022-09-28T14:39:32;4.57;;;0.80;;
72209;SDS011;60113;48.762;12.302;2022-09-28T14:42:39;2.85;;;1.20;;
72209;SDS011;60113;48.762;12.302;2022-09-28T14:45:32;3.13;;;0.93;;
72209;SDS011;60113;48.762;12.302;2022-09-28T14:48:40;3.03;;;0.95;;
72209;SDS011;60113;48.762;12.302;2022-09-28T14:54:20;2.35;;;0.88;;
72209;SDS011;60113;48.762;12.302;2022-09-28T14:57:15;5.90;;;1.13;;
72209;SDS011;60113;48.762;12.302;2022-09-28T15:00:06;1.63;;;0.75;;
72209;SDS011;60113;48.762;12.302;2022-09-28T15:03:10;1.73;;;0.95;;
72209;SDS011;60113;48.762;12.302;2022-09-28T15:05:58;8.38;;;1.02;;
72209;SDS011;60113;48.762;12.302;2022-09-28T15:08:44;2.20;;;0.98;;
72209;SDS011;60113;48.762;12.302;2022-09-28T15:11:29;2.33;;;1.00;;
72209;SDS011;60113;48.762;12.302;2022-09-28T15:14:16;3.10;;;1.20;;
72209;SDS011;60113;48.762;12.302;2022-09-28T15:17:09;3.22;;;1.23;;
72209;SDS011;60113;48.762;12.302;2022-09-28T15:20:04;4.38;;;1.25;;
72209;SDS011;60113;48.762;12.302;2022-09-28T15:26:29;2.95;;;1.30;;
72209;SDS011;60113;48.762;12.302;2022-09-28T15:29:18;3.45;;;1.02;;
72209;SDS011;60113;48.762;12.302;2022-09-28T15:32:05;3.42;;;1.23;;
72209;SDS011;60113;48.762;12.302;2022-09-28T15:35:17;5.35;;;2.15;;
72209;SDS011;60113;48.762;12.302;2022-09-28T15:38:08;5.03;;;1.60;;
72209;SDS011;60113;48.762;12.302;2022-09-28T15:41:03;7.65;;;1.40;;
72209;SDS011;60113;48.762;12.302;2022-09-28T15:44:04;4.78;;;1.38;;
72209;SDS011;60113;48.762;12.302;2022-09-28T15:47:07;5.45;;;1.75;;
72209;SDS011;60113;48.762;12.302;2022-09-28T15:49:57;3.28;;;1.55;;
72209;SDS011;60113;48.762;12.302;2022-09-28T15:52:56;5.60;;;2.25;;
72209;SDS011;60113;48.762;12.302;2022-09-28T15:55:45;5.20;;;2.20;;
72209;SDS011;60113;48.762;12.302;2022-09-28T15:58:35;3.22;;;1.73;;
72209;SDS011;60113;48.762;12.302;2022-09-28T16:01:25;4.13;;;1.50;;
72209;SDS011;60113;48.762;12.302;2022-09-28T16:07:33;4.43;;;1.80;;
72209;SDS011;60113;48.762;12.302;2022-09-28T16:13:10;7.68;;;1.73;;
72209;SDS011;60113;48.762;12.302;2022-09-28T16:16:00;7.13;;;1.58;;
72209;SDS011;60113;48.762;12.302;2022-09-28T16:18:46;7.72;;;1.58;;
72209;SDS011;60113;48.762;12.302;2022-09-28T16:26:56;3.67;;;1.50;;
72209;SDS011;60113;48.762;12.302;2022-09-28T16:29:32;3.75;;;1.90;;
72209;SDS011;60113;48.762;12.302;2022-09-28T16:35:13;3.75;;;1.52;;
72209;SDS011;60113;48.762;12.302;2022-09-28T16:37:39;6.78;;;2.10;;
72209;SDS011;60113;48.762;12.302;2022-09-28T16:40:08;4.63;;;2.08;;
72209;SDS011;60113;48.762;12.302;2022-09-28T16:42:35;3.95;;;1.80;;
72209;SDS011;60113;48.762;12.302;2022-09-28T16:45:02;5.07;;;1.98;;
72209;SDS011;60113;48.762;12.302;2022-09-28T16:47:30;7.50;;;2.38;;
72209;SDS011;60113;48.762;12.302;2022-09-28T16:50:00;3.55;;;2.40;;
72209;SDS011;60113;48.762;12.302;2022-09-28T16:52:28;4.32;;;3.00;;
72209;SDS011;60113;48.762;12.302;2022-09-28T16:55:13;8.07;;;3.08;;
72209;SDS011;60113;48.762;12.302;2022-09-28T16:57:39;7.72;;;3.38;;
72209;SDS011;60113;48.762;12.302;2022-09-28T17:00:05;9.80;;;3.08;;
72209;SDS011;60113;48.762;12.302;2022-09-28T17:02:33;6.25;;;3.50;;
72209;SDS011;60113;48.762;12.302;2022-09-28T17:04:59;5.18;;;3.40;;
72209;SDS011;60113;48.762;12.302;2022-09-28T17:07:25;7.18;;;4.25;;
72209;SDS011;60113;48.762;12.302;2022-09-28T17:09:50;11.95;;;8.10;;
72209;SDS011;60113;48.762;12.302;2022-09-28T17:12:19;11.13;;;4.28;;
72209;SDS011;60113;48.762;12.302;2022-09-28T17:14:48;7.68;;;3.45;;
72209;SDS011;60113;48.762;12.302;2022-09-28T17:17:13;7.22;;;3.72;;
72209;SDS011;60113;48.762;12.302;2022-09-28T17:19:39;10.20;;;4.57;;
72209;SDS011;60113;48.762;12.302;2022-09-28T17:22:15;11.35;;;4.55;;
72209;SDS011;60113;48.762;12.302;2022-09-28T17:24:52;7.10;;;3.45;;
72209;SDS011;60113;48.762;12.302;2022-09-28T17:27:19;9.65;;;2.90;;
72209;SDS011;60113;48.762;12.302;2022-09-28T17:29:45;5.07;;;3.25;;
72209;SDS011;60113;48.762;12.302;2022-09-28T17:32:12;5.18;;;3.35;;
72209;SDS011;60113;48.762;12.302;2022-09-28T17:34:42;7.35;;;3.75;;
72209;SDS011;60113;48.762;12.302;2022-09-28T17:37:11;6.72;;;3.90;;
72209;SDS011;60113;48.762;12.302;2022-09-28T17:39:38;7.70;;;5.22;;
72209;SDS011;60113;48.762;12.302;2022-09-28T17:42:04;12.25;;;5.95;;
72209;SDS011;60113;48.762;12.302;2022-09-28T17:44:29;8.07;;;5.68;;
72209;SDS011;60113;48.762;12.302;2022-09-28T17:46:55;8.25;;;5.30;;
72209;SDS011;60113;48.762;12.302;2022-09-28T17:49:21;6.60;;;4.60;;
72209;SDS011;60113;48.762;12.302;2022-09-28T17:51:46;9.10;;;5.90;;
72209;SDS011;60113;48.762;12.302;2022-09-28T17:54:14;12.23;;;4.72;;
72209;SDS011;60113;48.762;12.302;2022-09-28T17:56:43;7.57;;;4.38;;
72209;SDS011;60113;48.762;12.302;2022-09-28T17:59:11;11.57;;;5.32;;
72209;SDS011;60113;48.762;12.302;2022-09-28T18:01:38;14.43;;;5.45;;
72209;SDS011;60113;48.762;12.302;2022-09-28T18:04:05;12.52;;;5.97;;
72209;SDS011;60113;48.762;12.302;2022-09-28T18:06:34;13.27;;;6.18;;
72209;SDS011;60113;48.762;12.302;2022-09-28T18:09:01;13.48;;;6.15;;
72209;SDS011;60113;48.762;12.302;2022-09-28T18:11:30;13.65;;;6.95;;
72209;SDS011;60113;48.762;12.302;2022-09-28T18:13:56;14.60;;;6.80;;
72209;SDS011;60113;48.762;12.302;2022-09-28T18:16:22;11.40;;;6.10;;
72209;SDS011;60113;48.762;12.302;2022-09-28T18:18:49;13.70;;;7.25;;
72209;SDS011;60113;48.762;12.302;2022-09-28T18:21:14;13.20;;;7.35;;
72209;SDS011;60113;48.762;12.302;2022-09-28T18:23:40;10.90;;;6.18;;
72209;SDS011;60113;48.762;12.302;2022-09-28T18:26:10;8.23;;;5.97;;
72209;SDS011;60113;48.762;12.302;2022-09-28T18:28:36;15.20;;;6.82;;
72209;SDS011;60113;48.762;12.302;2022-09-28T18:31:05;10.20;;;6.88;;
72209;SDS011;60113;48.762;12.302;2022-09-28T18:33:32;11.93;;;7.15;;
72209;SDS011;60113;48.762;12.302;2022-09-28T18:35:59;12.75;;;6.47;;
72209;SDS011;60113;48.762;12.302;2022-09-28T18:38:26;12.38;;;7.22;;
72209;SDS011;60113;48.762;12.302;2022-09-28T18:40:52;12.80;;;7.72;;
72209;SDS011;60113;48.762;12.302;2022-09-28T18:43:19;10.30;;;6.43;;
72209;SDS011;60113;48.762;12.302;2022-09-28T18:45:45;12.65;;;7.20;;
72209;SDS011;60113;48.762;12.302;2022-09-28T18:48:11;15.75;;;7.55;;
72209;SDS011;60113;48.762;12.302;2022-09-28T18:50:37;17.17;;;7.63;;
72209;SDS011;60113;48.762;12.302;2022-09-28T18:53:05;11.73;;;6.38;;
72209;SDS011;60113;48.762;12.302;2022-09-28T18:55:40;10.98;;;6.50;;
72209;SDS011;60113;48.762;12.302;2022-09-28T18:58:18;12.35;;;6.78;;
72209;SDS011;60113;48.762;12.302;2022-09-28T19:00:54;8.93;;;5.72;;
72209;SDS011;60113;48.762;12.302;2022-09-28T19:03:30;7.43;;;5.47;;
72209;SDS011;60113;48.762;12.302;2022-09-28T19:06:11;10.63;;;4.90;;
72209;SDS011;60113;48.762;12.302;2022-09-28T19:08:52;9.13;;;6.25;;
72209;SDS011;60113;48.762;12.302;2022-09-28T19:11:22;10.95;;;6.47;;
72209;SDS011;60113;48.762;12.302;2022-09-28T19:13:58;11.15;;;6.38;;
72209;SDS011;60113;48.762;12.302;2022-09-28T19:16:35;10.02;;;7.13;;
72209;SDS011;60113;48.762;12.302;2022-09-28T19:19:12;13.20;;;7.38;;
72209;SDS011;60113;48.762;12.302;2022-09-28T19:21:49;15.90;;;7.88;;
72209;SDS011;60113;48.762;12.302;2022-09-28T19:24:24;14.38;;;8.68;;
72209;SDS011;60113;48.762;12.302;2022-09-28T19:27:00;14.82;;;8.57;;